createdAt,value
2023-04-30T00:02:23.729Z,0.40
2023-04-30T00:07:25.395Z,0.50
2023-04-30T00:12:26.793Z,0.60
2023-04-30T00:17:28.212Z,0.60
2023-04-30T00:22:29.589Z,0.50
2023-04-30T00:27:31.831Z,0.60
2023-04-30T00:32:33.252Z,0.60
2023-04-30T00:37:34.657Z,0.70
2023-04-30T00:42:37.107Z,0.45
2023-04-30T00:47:38.580Z,0.57
2023-04-30T00:52:39.988Z,0.40
2023-04-30T00:57:41.410Z,0.30
2023-04-30T01:02:43.002Z,0.50
2023-04-30T01:07:47.299Z,0.40
2023-04-30T01:13:09.687Z,0.43
2023-04-30T01:18:17.466Z,0.50
2023-04-30T01:23:31.390Z,0.40
2023-04-30T01:28:32.788Z,0.55
2023-04-30T01:33:34.178Z,0.47
2023-04-30T01:38:38.383Z,0.45
2023-04-30T01:44:03.405Z,0.40
2023-04-30T01:49:27.742Z,0.40
2023-04-30T01:54:33.522Z,0.60
2023-04-30T02:04:36.535Z,0.57
2023-04-30T02:09:37.916Z,0.57
2023-04-30T02:14:39.317Z,0.52
2023-04-30T02:19:40.698Z,0.50
2023-04-30T02:24:42.089Z,0.50
2023-04-30T02:29:43.467Z,0.40
2023-04-30T02:34:45.094Z,0.30
2023-04-30T02:39:46.467Z,0.40
2023-04-30T02:44:47.902Z,0.40
2023-04-30T02:49:49.321Z,0.30
2023-04-30T02:54:50.801Z,0.50
2023-04-30T02:59:52.336Z,0.30
2023-04-30T03:04:53.925Z,0.30
2023-04-30T03:09:55.386Z,0.30
2023-04-30T03:14:57.094Z,0.30
2023-04-30T03:19:58.469Z,0.30
2023-04-30T03:24:59.866Z,0.30
2023-04-30T03:30:01.254Z,0.30
2023-04-30T03:35:02.624Z,0.30
2023-04-30T03:40:04.795Z,0.30
2023-04-30T03:45:06.657Z,0.40
2023-04-30T03:50:08.824Z,0.38
2023-04-30T03:55:10.400Z,0.32
2023-04-30T04:00:13.435Z,0.40
2023-04-30T04:05:14.873Z,0.20
2023-04-30T04:10:16.301Z,0.30
2023-04-30T04:15:17.699Z,0.20
2023-04-30T04:20:19.097Z,0.30
2023-04-30T04:25:20.493Z,0.25
2023-04-30T04:30:21.895Z,0.20
2023-04-30T04:35:23.309Z,0.20
2023-04-30T04:40:24.877Z,0.30
2023-04-30T04:45:26.624Z,0.30
2023-04-30T04:50:28.060Z,0.40
2023-04-30T04:55:29.434Z,0.20
2023-04-30T05:00:30.812Z,0.30
2023-04-30T05:05:32.211Z,0.20
2023-04-30T05:10:34.746Z,0.30
2023-04-30T05:15:36.374Z,0.20
2023-04-30T05:20:37.754Z,0.20
2023-04-30T05:25:40.413Z,0.20
2023-04-30T05:30:41.818Z,0.20
2023-04-30T05:35:43.202Z,0.20
2023-04-30T05:40:44.595Z,0.30
2023-04-30T05:45:46.156Z,0.20
2023-04-30T05:50:47.587Z,0.20
2023-04-30T05:55:48.982Z,0.10
2023-04-30T06:00:51.836Z,0.30
2023-04-30T06:05:54.164Z,0.30
2023-04-30T06:10:55.696Z,0.20
2023-04-30T06:15:57.059Z,0.30
2023-04-30T06:20:58.447Z,0.20
2023-04-30T06:25:59.930Z,0.30
2023-04-30T06:31:01.367Z,0.20
2023-04-30T06:36:02.804Z,0.28
2023-04-30T06:41:04.237Z,0.20
2023-04-30T06:46:06.772Z,0.20
2023-04-30T06:51:10.482Z,0.20
2023-04-30T06:56:12.322Z,0.20
2023-04-30T07:01:13.919Z,0.30
2023-04-30T07:06:15.517Z,0.20
2023-04-30T07:11:16.980Z,0.20
2023-04-30T07:16:18.437Z,0.25
2023-04-30T07:21:19.837Z,0.20
2023-04-30T07:26:21.760Z,0.22
2023-04-30T07:31:23.230Z,0.20
2023-04-30T07:36:27.063Z,0.28
2023-04-30T07:41:28.440Z,0.20
2023-04-30T07:46:29.909Z,0.20
2023-04-30T07:51:33.116Z,0.30
2023-04-30T07:56:34.626Z,0.10
2023-04-30T08:01:36.142Z,0.10
2023-04-30T08:06:37.568Z,0.30
2023-04-30T08:11:38.962Z,0.22
2023-04-30T08:16:40.413Z,0.30
2023-04-30T08:21:41.920Z,0.30
2023-04-30T08:26:43.337Z,0.20
2023-04-30T08:31:44.753Z,0.20
2023-04-30T08:36:46.159Z,0.30
2023-04-30T08:41:47.674Z,0.30
2023-04-30T08:46:55.569Z,0.22
2023-04-30T08:51:56.993Z,0.17
2023-04-30T08:56:58.403Z,0.20
2023-04-30T09:02:02.801Z,0.20
2023-04-30T09:07:06.275Z,0.20
2023-04-30T09:12:18.812Z,0.20
2023-04-30T09:17:24.871Z,0.20
2023-04-30T09:22:26.301Z,0.25
2023-04-30T09:27:27.688Z,0.30
2023-04-30T09:32:29.154Z,0.10
2023-04-30T09:37:37.603Z,0.10
2023-04-30T09:42:39.652Z,0.20
2023-04-30T09:47:41.190Z,0.30
2023-04-30T09:52:53.405Z,0.20
2023-04-30T09:57:54.795Z,0.30
2023-04-30T10:02:56.204Z,0.25
2023-04-30T10:07:57.634Z,0.30
2023-04-30T10:13:02.839Z,0.20
2023-04-30T10:18:06.145Z,0.20
2023-04-30T10:23:08.333Z,0.20
2023-04-30T10:28:09.718Z,0.20
2023-04-30T10:33:26.063Z,0.20
2023-04-30T10:38:29.640Z,0.28
2023-04-30T10:43:31.164Z,0.20
2023-04-30T10:48:34.764Z,0.28
2023-04-30T10:53:36.546Z,0.20
2023-04-30T10:58:39.404Z,0.10
2023-04-30T11:03:42.851Z,0.20
2023-04-30T11:08:45.569Z,0.20
2023-04-30T11:13:47.805Z,0.20
2023-04-30T11:18:49.178Z,0.20
2023-04-30T11:23:50.684Z,0.20
2023-04-30T11:28:53.216Z,0.10
2023-04-30T11:33:55.436Z,0.30
2023-04-30T11:38:56.802Z,0.10
2023-04-30T11:43:58.187Z,0.10
2023-04-30T11:48:59.741Z,0.10
2023-04-30T11:54:01.167Z,0.10
2023-04-30T11:59:02.540Z,0.35
2023-04-30T12:04:04.143Z,0.20
2023-04-30T12:09:08.060Z,0.20
2023-04-30T12:14:14.545Z,0.20
2023-04-30T12:19:16.868Z,0.10
2023-04-30T12:24:19.145Z,0.20
2023-04-30T12:29:21.773Z,0.13
2023-04-30T12:34:26.158Z,0.20
2023-04-30T12:39:33.193Z,0.15
2023-04-30T12:44:42.582Z,0.20
2023-04-30T12:49:44.948Z,0.20
2023-04-30T12:54:46.362Z,0.20
2023-04-30T12:59:53.953Z,0.30
2023-04-30T13:04:55.556Z,0.10
2023-04-30T13:09:57.216Z,0.20
2023-04-30T13:14:58.700Z,0.20
2023-04-30T13:20:00.124Z,0.10
2023-04-30T13:25:01.595Z,0.20
2023-04-30T13:30:03.834Z,0.10
2023-04-30T13:35:05.784Z,0.20
2023-04-30T13:40:08.055Z,0.17
2023-04-30T13:45:09.646Z,0.10
2023-04-30T13:50:11.221Z,0.10
2023-04-30T13:55:13.676Z,0.10
2023-04-30T14:00:15.868Z,0.10
2023-04-30T14:05:17.276Z,0.20
2023-04-30T14:10:18.668Z,0.10
2023-04-30T14:15:20.547Z,0.10
2023-04-30T14:20:22.005Z,0.10
2023-04-30T14:25:23.891Z,0.10
2023-04-30T14:30:25.295Z,0.20
2023-04-30T14:35:27.019Z,0.20
2023-04-30T14:40:28.620Z,0.10
2023-04-30T14:45:30.040Z,0.10
2023-04-30T14:50:31.453Z,0.20
2023-04-30T14:55:33.061Z,0.10
2023-04-30T15:00:34.439Z,0.10
2023-04-30T15:05:36.412Z,0.20
2023-04-30T15:10:37.800Z,0.20
2023-04-30T15:15:39.375Z,0.10
2023-04-30T15:20:40.796Z,0.25
2023-04-30T15:25:43.942Z,0.20
2023-04-30T15:30:45.337Z,0.10
2023-04-30T15:35:47.345Z,0.20
2023-04-30T15:40:48.760Z,0.20
2023-04-30T15:45:50.150Z,0.20
2023-04-30T15:50:51.528Z,0.15
2023-04-30T15:55:53.161Z,0.20
2023-04-30T16:00:54.569Z,0.20
2023-04-30T16:05:55.963Z,0.20
2023-04-30T16:10:57.393Z,0.30
2023-04-30T16:15:58.844Z,0.20
2023-04-30T16:21:01.231Z,0.10
2023-04-30T16:26:02.635Z,0.30
2023-04-30T16:31:04.177Z,0.20
2023-04-30T16:36:05.676Z,0.20
2023-04-30T16:41:07.040Z,0.20
2023-04-30T16:46:08.520Z,0.20
2023-04-30T16:51:09.920Z,0.15
2023-04-30T16:56:11.335Z,0.20
2023-04-30T17:01:12.767Z,0.20
2023-04-30T17:06:14.518Z,0.17
2023-04-30T17:11:19.065Z,0.15
2023-04-30T17:16:20.964Z,0.20
2023-04-30T17:21:22.394Z,0.10
2023-04-30T17:26:24.688Z,0.20
2023-04-30T17:31:26.117Z,0.10
2023-04-30T17:36:28.695Z,0.15
2023-04-30T17:41:30.253Z,0.30
2023-04-30T17:46:31.684Z,0.28
2023-04-30T17:51:33.152Z,0.20
2023-04-30T17:56:35.080Z,0.20
2023-04-30T18:01:37.218Z,0.20
2023-04-30T18:06:38.770Z,0.30
2023-04-30T18:11:40.351Z,0.20
2023-04-30T18:16:41.915Z,0.30
2023-04-30T18:21:43.436Z,0.20
2023-04-30T18:26:45.124Z,0.50
2023-04-30T18:31:46.533Z,0.50
2023-04-30T18:36:47.940Z,0.40
2023-04-30T18:41:49.342Z,0.65
2023-04-30T18:46:50.767Z,0.70
2023-04-30T18:51:53.446Z,0.68
2023-04-30T18:56:54.858Z,0.70
2023-04-30T19:01:56.237Z,0.80
2023-04-30T19:06:57.640Z,1.08
2023-04-30T19:11:59.127Z,0.88
2023-04-30T19:17:00.879Z,1.10
2023-04-30T19:22:02.310Z,1.10
2023-04-30T19:27:04.126Z,1.10
2023-04-30T19:32:05.775Z,1.27
2023-04-30T19:37:07.272Z,1.20
2023-04-30T19:42:08.686Z,1.38
2023-04-30T19:47:10.131Z,1.10
2023-04-30T19:52:11.507Z,1.45
2023-04-30T19:57:12.933Z,1.50
2023-04-30T20:02:14.470Z,1.40
2023-04-30T20:07:15.941Z,1.20
2023-04-30T20:12:17.315Z,1.42
2023-04-30T20:17:19.039Z,1.10
2023-04-30T20:22:20.464Z,1.35
2023-04-30T20:27:22.004Z,1.38
2023-04-30T20:32:23.579Z,1.60
2023-04-30T20:37:24.975Z,1.45
2023-04-30T20:42:29.691Z,1.55
2023-04-30T20:47:31.124Z,1.40
2023-04-30T20:52:32.595Z,1.60
2023-04-30T20:57:34.218Z,1.90
2023-04-30T21:02:35.830Z,2.03
2023-04-30T21:07:37.295Z,1.75
2023-04-30T21:12:38.661Z,2.20
2023-04-30T21:17:40.187Z,1.85
2023-04-30T21:22:42.098Z,2.45
2023-04-30T21:27:43.479Z,2.25
2023-04-30T21:32:47.856Z,1.88
2023-04-30T21:37:49.284Z,2.30
2023-04-30T21:42:52.391Z,2.05
2023-04-30T21:47:53.874Z,2.28
2023-04-30T21:52:55.311Z,2.35
2023-04-30T21:57:56.936Z,2.30
2023-04-30T22:02:58.485Z,2.03
2023-04-30T22:07:59.949Z,2.10
2023-04-30T22:13:01.719Z,2.45
2023-04-30T22:18:03.147Z,2.05
2023-04-30T22:23:04.530Z,2.00
2023-04-30T22:28:05.934Z,1.63
2023-04-30T22:33:07.520Z,1.80
2023-04-30T22:38:08.979Z,1.83
2023-04-30T22:43:10.356Z,1.95
2023-04-30T22:48:12.209Z,1.90
2023-04-30T22:53:13.677Z,1.60
2023-04-30T22:58:15.850Z,1.92
2023-04-30T23:03:17.427Z,1.50
2023-04-30T23:08:19.068Z,1.50
2023-04-30T23:13:20.507Z,1.58
2023-04-30T23:18:23.689Z,1.70
2023-04-30T23:23:25.650Z,1.40
2023-04-30T23:28:27.161Z,1.52
2023-04-30T23:33:28.538Z,1.50
2023-04-30T23:38:29.931Z,1.48
2023-04-30T23:43:32.829Z,1.40
2023-04-30T23:48:34.677Z,1.33
2023-04-30T23:53:36.159Z,1.63
2023-04-30T23:58:37.558Z,1.50
